createdAt,value
2018-04-14T00:01:13.670Z,98805.72
2018-04-14T00:03:41.185Z,98813.80
2018-04-14T00:06:08.727Z,98808.98
2018-04-14T00:08:36.192Z,98809.50
2018-04-14T00:11:03.657Z,98812.45
2018-04-14T00:16:04.786Z,98811.67
2018-04-14T00:18:32.228Z,98812.77
2018-04-14T00:20:59.709Z,98808.73
2018-04-14T00:23:27.196Z,98814.20
2018-04-14T00:25:54.746Z,98818.81
2018-04-14T00:28:22.263Z,98815.09
2018-04-14T00:30:49.828Z,98814.81
2018-04-14T00:33:17.397Z,98822.52
2018-04-14T00:35:44.897Z,98821.61
2018-04-14T00:38:12.377Z,98824.00
2018-04-14T00:40:39.860Z,98826.84
2018-04-14T00:43:07.459Z,98820.27
2018-04-14T00:45:50.019Z,98825.41
2018-04-14T00:48:17.470Z,98834.89
2018-04-14T00:50:45.516Z,98837.74
2018-04-14T00:53:24.796Z,98832.09
2018-04-14T00:55:52.302Z,98830.93
2018-04-14T00:58:19.840Z,98835.41
2018-04-14T01:00:47.329Z,98833.92
2018-04-14T01:03:14.882Z,98834.23
2018-04-14T01:05:42.350Z,98837.27
2018-04-14T01:08:09.804Z,98846.50
2018-04-14T01:10:37.526Z,98842.86
2018-04-14T01:13:05.080Z,98846.09
2018-04-14T01:15:36.333Z,98843.41
2018-04-14T01:18:03.852Z,98839.06
2018-04-14T01:20:31.365Z,98835.94
2018-04-14T01:22:58.910Z,98833.84
2018-04-14T01:25:26.538Z,98841.37
2018-04-14T01:27:54.122Z,98841.77
2018-04-14T01:30:21.590Z,98840.37
2018-04-14T01:32:49.044Z,98849.38
2018-04-14T01:35:17.221Z,98850.13
2018-04-14T01:37:44.783Z,98851.88
2018-04-14T01:40:12.218Z,98854.91
2018-04-14T01:42:39.753Z,98858.83
2018-04-14T01:45:07.248Z,98859.79
2018-04-14T01:47:34.832Z,98860.20
2018-04-14T01:50:02.305Z,98862.06
2018-04-14T01:52:29.791Z,98859.88
2018-04-14T01:54:57.273Z,98863.97
2018-04-14T01:57:24.721Z,98859.27
2018-04-14T01:59:52.249Z,98858.07
2018-04-14T02:02:19.694Z,98852.75
2018-04-14T02:04:47.121Z,98857.13
2018-04-14T02:07:14.738Z,98861.86
2018-04-14T02:09:42.217Z,98855.69
2018-04-14T02:12:09.802Z,98859.47
2018-04-14T02:14:37.386Z,98866.00
2018-04-14T02:17:04.866Z,98865.84
2018-04-14T02:19:32.381Z,98871.13
2018-04-14T02:21:59.849Z,98870.59
2018-04-14T02:24:27.375Z,98863.39
2018-04-14T02:26:54.849Z,98860.39
2018-04-14T02:29:22.372Z,98859.61
2018-04-14T02:31:49.864Z,98863.98
2018-04-14T02:34:17.337Z,98868.97
2018-04-14T02:36:44.831Z,98868.88
2018-04-14T02:39:12.280Z,98870.64
2018-04-14T02:41:39.716Z,98871.00
2018-04-14T02:44:07.242Z,98862.98
2018-04-14T02:46:34.827Z,98865.42
2018-04-14T02:49:02.513Z,98865.27
2018-04-14T02:51:30.006Z,98869.53
2018-04-14T02:53:57.537Z,98869.05
2018-04-14T02:56:25.041Z,98863.92
2018-04-14T02:58:52.538Z,98868.28
2018-04-14T03:01:20.924Z,98865.48
2018-04-14T03:03:48.410Z,98874.98
2018-04-14T03:06:16.779Z,98872.30
2018-04-14T03:08:44.313Z,98880.78
2018-04-14T03:11:11.782Z,98879.17
2018-04-14T03:13:39.272Z,98878.75
2018-04-14T03:16:06.746Z,98879.87
2018-04-14T03:18:34.240Z,98882.66
2018-04-14T03:39:03.993Z,98888.21
2018-04-14T03:41:31.488Z,98896.16
2018-04-14T03:43:59.039Z,98901.20
2018-04-14T03:46:26.525Z,98903.32
2018-04-14T03:48:54.007Z,98902.06
2018-04-14T03:51:21.478Z,98900.86
2018-04-14T03:53:49.011Z,98900.11
2018-04-14T03:56:16.519Z,98897.86
2018-04-14T03:58:44.027Z,98900.27
2018-04-14T04:01:11.508Z,98903.29
2018-04-14T04:03:38.955Z,98897.68
2018-04-14T04:06:06.465Z,98903.71
2018-04-14T04:08:33.969Z,98910.97
2018-04-14T04:11:01.505Z,98910.58
2018-04-14T04:13:28.961Z,98922.77
2018-04-14T04:15:56.548Z,98925.05
2018-04-14T04:18:36.081Z,98923.52
2018-04-14T04:21:15.380Z,98925.78
2018-04-14T07:32:01.512Z,99081.11
2018-04-14T07:34:30.151Z,99082.95
2018-04-14T07:40:06.019Z,99084.16
2018-04-14T07:42:33.638Z,99088.83
2018-04-14T07:45:01.214Z,99086.33
2018-04-14T07:47:28.811Z,99086.00
2018-04-14T07:53:18.695Z,99092.40
2018-04-14T07:55:46.217Z,99092.34
2018-04-14T07:58:13.727Z,99101.43
2018-04-14T08:03:18.761Z,99096.80
2018-04-14T08:36:14.832Z,99096.23
2018-04-14T08:38:42.360Z,99094.37
2018-04-14T08:41:09.920Z,99097.94
2018-04-14T08:43:37.352Z,99093.09
2018-04-14T08:46:04.896Z,99088.72
2018-04-14T08:48:32.446Z,99101.80
2018-04-14T08:50:59.888Z,99095.52
2018-04-14T08:53:32.891Z,99095.50
2018-04-14T08:56:00.345Z,99102.13
2018-04-14T08:58:27.885Z,99094.71
2018-04-14T09:00:57.371Z,99095.95
2018-04-14T09:03:24.878Z,99091.81
2018-04-14T09:05:52.492Z,99092.42
2018-04-14T09:08:20.210Z,99093.94
2018-04-14T09:10:47.655Z,99100.00
2018-04-14T09:13:15.168Z,99095.14
2018-04-14T09:15:42.771Z,99096.27
2018-04-14T09:18:10.205Z,99087.78
2018-04-14T09:20:37.724Z,99094.50
2018-04-14T09:23:05.266Z,99092.07
2018-04-14T09:25:32.713Z,99093.13
2018-04-14T09:28:00.197Z,99088.59
2018-04-14T09:30:27.682Z,99092.45
2018-04-14T09:32:55.255Z,99098.55
2018-04-14T09:35:22.872Z,99084.92
2018-04-14T09:37:50.384Z,99086.05
2018-04-14T09:43:19.098Z,99077.20
2018-04-14T09:45:46.649Z,99073.77
2018-04-14T09:48:14.138Z,99075.62
2018-04-14T09:50:42.138Z,99070.30
2018-04-14T09:53:11.208Z,99065.95
2018-04-14T09:55:38.600Z,99069.19
2018-04-14T09:58:05.998Z,99066.70
2018-04-14T10:00:33.400Z,99055.27
2018-04-14T10:05:57.449Z,99057.58
2018-04-14T10:08:24.852Z,99055.86
2018-04-14T10:10:53.079Z,99057.69
2018-04-14T10:13:20.485Z,99055.77
2018-04-14T10:15:47.881Z,99051.43
2018-04-14T13:22:37.639Z,98992.31
2018-04-14T13:28:07.894Z,98997.66
2018-04-14T13:30:35.345Z,99001.83
2018-04-14T13:33:02.794Z,98994.33
2018-04-14T13:35:30.211Z,98998.79
2018-04-14T13:37:57.728Z,98988.80
2018-04-14T13:40:25.160Z,98985.84
2018-04-14T13:42:52.640Z,98986.20
2018-04-14T13:45:20.185Z,98988.11
2018-04-14T13:47:47.658Z,98978.30
2018-04-14T13:56:05.593Z,98957.42
2018-04-14T13:58:34.026Z,98950.80
2018-04-14T14:01:01.526Z,98946.66
2018-04-14T14:03:29.020Z,98945.03
2018-04-14T14:05:56.552Z,98930.55
2018-04-14T14:08:24.017Z,98935.63
2018-04-14T14:10:52.036Z,98930.48
2018-04-14T14:13:19.523Z,98932.13
2018-04-14T14:15:47.060Z,98929.60
2018-04-14T14:18:27.475Z,98928.00
2018-04-14T14:20:54.940Z,98913.53
2018-04-14T14:26:24.577Z,98899.37
2018-04-14T14:28:52.137Z,98898.27
2018-04-14T14:31:19.608Z,98887.77
2018-04-14T14:33:47.105Z,98877.66
2018-04-14T14:36:14.576Z,98873.10
2018-04-14T14:38:41.968Z,98863.66
2018-04-14T14:41:09.361Z,98864.22
2018-04-14T15:07:50.791Z,98867.66
2018-04-14T15:13:20.831Z,98860.97
2018-04-14T15:15:48.204Z,98859.20
2018-04-14T15:18:15.604Z,98862.88
2018-04-14T15:20:42.996Z,98859.39
2018-04-14T15:23:10.377Z,98866.05
2018-04-14T15:25:37.772Z,98861.55
2018-04-14T15:28:05.164Z,98865.34
2018-04-14T15:30:32.548Z,98857.98
2018-04-14T15:32:59.942Z,98856.63
2018-04-14T15:35:27.330Z,98851.86
2018-04-14T15:37:54.731Z,98853.13
2018-04-14T15:40:22.111Z,98851.19
2018-04-14T15:42:49.499Z,98853.02
2018-04-14T15:45:16.893Z,98852.83
2018-04-14T15:47:44.267Z,98853.47
2018-04-14T15:50:11.668Z,98849.16
2018-04-14T15:52:39.046Z,98850.58
2018-04-14T15:55:06.432Z,98854.17
2018-04-14T15:57:33.822Z,98849.64
2018-04-14T16:00:01.220Z,98848.99
2018-04-14T16:02:28.602Z,98844.29
2018-04-14T16:04:56.001Z,98845.73
2018-04-14T16:07:23.375Z,98846.89
2018-04-14T16:09:50.773Z,98844.55
2018-04-14T16:12:18.151Z,98846.27
2018-04-14T16:14:45.598Z,98838.52
2018-04-14T16:17:12.989Z,98831.65
2018-04-14T16:19:40.373Z,98835.98
2018-04-14T16:22:07.765Z,98836.41
2018-04-14T16:24:35.157Z,98844.09
2018-04-14T16:27:02.540Z,98839.19
2018-04-14T16:29:29.931Z,98836.13
2018-04-14T16:31:57.326Z,98832.26
2018-04-14T16:34:24.742Z,98830.49
2018-04-14T16:36:52.170Z,98829.38
2018-04-14T16:39:19.556Z,98831.20
2018-04-14T16:41:46.937Z,98833.72
2018-04-14T16:44:14.336Z,98830.78
2018-04-14T16:46:41.720Z,98829.12
2018-04-14T16:49:09.107Z,98831.00
2018-04-14T16:51:36.501Z,98833.90
2018-04-14T16:54:03.888Z,98827.52
2018-04-14T16:56:31.290Z,98821.11
2018-04-14T16:58:58.675Z,98815.43
2018-04-14T17:01:26.070Z,98823.30
2018-04-14T17:03:53.461Z,98822.73
2018-04-14T17:06:20.855Z,98818.35
2018-04-14T17:08:48.236Z,98824.38
2018-04-14T17:11:15.630Z,98832.69
2018-04-14T17:13:43.010Z,98834.63
2018-04-14T17:16:10.411Z,98830.35
2018-04-14T17:18:37.784Z,98830.56
2018-04-14T17:21:05.189Z,98829.25
2018-04-14T17:26:06.424Z,98833.45
2018-04-14T17:28:33.804Z,98828.72
2018-04-14T17:31:01.199Z,98828.55
2018-04-14T17:33:28.587Z,98826.33
2018-04-14T17:35:55.968Z,98822.72
2018-04-14T17:38:23.352Z,98820.00
2018-04-14T17:40:50.744Z,98810.68
2018-04-14T17:43:18.152Z,98810.38
2018-04-14T17:45:45.550Z,98812.27
2018-04-14T17:48:12.933Z,98820.92
2018-04-14T17:50:40.334Z,98816.22
2018-04-14T17:53:07.721Z,98820.16
2018-04-14T17:55:35.110Z,98817.95
2018-04-14T17:58:02.514Z,98823.52
2018-04-14T18:00:29.897Z,98824.47
2018-04-14T18:02:57.284Z,98825.27
2018-04-14T18:05:24.681Z,98823.20
2018-04-14T18:07:52.081Z,98829.34
2018-04-14T18:10:19.449Z,98822.85
2018-04-14T18:12:46.857Z,98828.59
2018-04-14T18:15:14.246Z,98837.53
2018-04-14T18:17:41.633Z,98838.01
2018-04-14T18:20:09.012Z,98837.39
2018-04-14T18:22:36.405Z,98840.71
2018-04-14T18:25:03.782Z,98835.42
2018-04-14T18:27:31.183Z,98837.97
2018-04-14T18:29:58.568Z,98842.52
2018-04-14T18:32:25.958Z,98841.95
2018-04-14T18:34:53.348Z,98842.87
2018-04-14T18:37:20.749Z,98840.74
2018-04-14T18:39:48.130Z,98841.95
2018-04-14T18:42:15.517Z,98840.55
2018-04-14T18:44:42.946Z,98847.29
2018-04-14T18:47:10.293Z,98851.46
2018-04-14T18:49:37.673Z,98849.27
2018-04-14T18:52:05.072Z,98851.46
2018-04-14T18:54:32.463Z,98849.06
2018-04-14T18:56:59.960Z,98850.02
2018-04-14T18:59:27.326Z,98851.95
2018-04-14T19:01:54.794Z,98858.25
2018-04-14T19:04:22.259Z,98857.60
2018-04-14T19:06:49.782Z,98849.27
2018-04-14T19:09:17.215Z,98855.89
2018-04-14T19:11:44.725Z,98860.45
2018-04-14T19:14:12.230Z,98861.55
2018-04-14T19:16:39.673Z,98858.70
2018-04-14T19:19:07.288Z,98857.98
2018-04-14T19:21:34.813Z,98857.98
2018-04-14T19:24:02.373Z,98861.05
2018-04-14T19:26:30.188Z,98867.48
2018-04-14T19:28:57.702Z,98869.18
2018-04-14T19:31:25.177Z,98864.22
2018-04-14T19:33:52.791Z,98872.69
2018-04-14T19:36:20.244Z,98869.82
2018-04-14T19:38:47.645Z,98870.26
2018-04-14T19:41:15.103Z,98870.57
2018-04-14T19:43:42.505Z,98872.97
2018-04-14T19:46:10.258Z,98864.70
2018-04-14T19:48:37.834Z,98860.08
2018-04-14T19:51:05.324Z,98862.45
2018-04-14T19:53:32.833Z,98864.78
2018-04-14T19:56:00.262Z,98865.64
2018-04-14T19:58:27.853Z,98853.37
2018-04-14T20:00:55.453Z,98858.29
2018-04-14T20:03:22.922Z,98856.80
2018-04-14T20:05:51.202Z,98858.49
2018-04-14T20:08:18.669Z,98849.72
2018-04-14T20:10:46.595Z,98846.27
2018-04-14T20:13:14.136Z,98840.02
2018-04-14T20:15:41.613Z,98840.63
2018-04-14T20:18:09.155Z,98842.39
2018-04-14T20:20:37.896Z,98839.53
2018-04-14T20:23:05.341Z,98833.70
2018-04-14T20:25:32.809Z,98842.98
2018-04-14T20:28:00.406Z,98840.80
2018-04-14T20:30:29.052Z,98839.33
2018-04-14T20:32:57.090Z,98826.18
2018-04-14T20:35:25.533Z,98829.13
2018-04-14T20:37:52.953Z,98830.38
2018-04-14T20:40:20.451Z,98827.16
2018-04-14T20:42:47.924Z,98825.41
2018-04-14T20:45:15.429Z,98826.47
2018-04-14T20:47:42.921Z,98822.86
2018-04-14T20:50:10.374Z,98825.25
2018-04-14T20:55:11.613Z,98828.19
2018-04-14T20:57:39.105Z,98822.38
2018-04-14T21:00:06.505Z,98814.94
2018-04-14T21:02:33.920Z,98817.55
2018-04-14T21:05:01.361Z,98812.13
2018-04-14T21:07:29.742Z,98812.25
2018-04-14T21:09:57.248Z,98799.94
2018-04-14T21:12:24.804Z,98798.77
2018-04-14T21:14:52.245Z,98800.98
2018-04-14T21:17:19.771Z,98801.04
2018-04-14T21:19:47.793Z,98802.00
2018-04-14T21:22:15.354Z,98796.42
2018-04-14T21:24:42.777Z,98792.98
2018-04-14T21:27:11.277Z,98797.48
2018-04-14T21:29:39.021Z,98793.03
2018-04-14T21:32:08.146Z,98788.13
2018-04-14T21:43:43.420Z,98770.34
2018-04-14T21:46:12.420Z,98772.94
2018-04-14T21:48:52.696Z,98769.13
2018-04-14T21:51:20.198Z,98766.06
2018-04-14T21:53:47.947Z,98758.91
2018-04-14T21:56:15.585Z,98760.04
2018-04-14T21:58:43.111Z,98762.59
2018-04-14T22:02:41.381Z,98762.69
2018-04-14T22:05:09.019Z,98762.17
2018-04-14T22:07:37.004Z,98760.40
2018-04-14T22:12:39.798Z,98757.40
2018-04-14T22:15:07.176Z,98758.02
2018-04-14T22:17:34.719Z,98757.48
2018-04-14T22:20:02.232Z,98752.55
2018-04-14T22:22:30.470Z,98746.98
2018-04-14T22:24:57.960Z,98744.91
2018-04-14T22:27:25.397Z,98744.49
2018-04-14T22:29:52.901Z,98736.60
2018-04-14T22:32:20.934Z,98748.05
2018-04-14T22:34:48.552Z,98750.86
2018-04-14T22:37:16.137Z,98741.53
2018-04-14T22:39:43.625Z,98743.48
2018-04-14T22:42:11.107Z,98743.69
2018-04-14T22:44:38.630Z,98743.08
2018-04-14T22:47:06.044Z,98746.58
2018-04-14T22:49:33.552Z,98751.33
2018-04-14T22:52:01.857Z,98750.52
2018-04-14T22:54:29.324Z,98750.41
2018-04-14T22:56:56.839Z,98754.16
2018-04-14T22:59:24.332Z,98748.66
2018-04-14T23:01:51.834Z,98747.34
2018-04-14T23:04:19.313Z,98744.13
2018-04-14T23:09:20.427Z,98744.63
2018-04-14T23:11:47.920Z,98740.48
2018-04-14T23:14:15.381Z,98737.01
2018-04-14T23:16:42.930Z,98741.24
2018-04-14T23:19:10.397Z,98737.79
2018-04-14T23:21:42.744Z,98733.69
2018-04-14T23:24:10.294Z,98731.81
2018-04-14T23:26:37.777Z,98724.83
2018-04-14T23:29:05.272Z,98722.41
2018-04-14T23:31:32.839Z,98727.70
2018-04-14T23:34:00.273Z,98721.75
2018-04-14T23:36:27.826Z,98719.00
2018-04-14T23:38:55.797Z,98712.75
2018-04-14T23:41:23.293Z,98701.02
2018-04-14T23:43:50.756Z,98706.57
2018-04-14T23:46:18.316Z,98711.45
2018-04-14T23:48:45.742Z,98712.42
2018-04-14T23:51:13.287Z,98714.94
2018-04-14T23:53:40.764Z,98701.89
2018-04-14T23:56:08.229Z,98695.91
2018-04-14T23:58:35.801Z,98696.50
